Time;durP1;ratioP1;P1;durP2;ratioP2;P2;SDS_P1;SDS_P2;PMS_P1;PMS_P2;Temp;Humidity;BMP_temperature;BMP_pressure;BME280_temperature;BME280_humidity;BME280_pressure;Samples;Min_cycle;Max_cycle;Signal;HPM_P1;HPM_P2
2021/10/11 00:00:00;;;;;;;0.90;0.70;;;6.10;99.90;;;;;;5057944;28;20450;-77
2021/10/11 00:02:27;;;;;;;1.73;1.63;;;6.10;99.90;;;;;;5058014;28;20465;-77
2021/10/11 00:04:54;;;;;;;0.93;0.73;;;6.00;99.90;;;;;;5058724;28;20809;-77
2021/10/11 00:07:20;;;;;;;0.43;0.43;;;6.00;99.90;;;;;;5057258;28;20960;-77
2021/10/11 00:09:47;;;;;;;1.17;0.50;;;6.00;99.90;;;;;;5057185;28;20478;-77
2021/10/11 00:12:14;;;;;;;0.80;0.80;;;5.90;99.90;;;;;;5056632;28;20454;-77
2021/10/11 00:14:42;;;;;;;0.73;0.73;;;5.90;99.90;;;;;;5056414;28;20452;-77
2021/10/11 00:17:09;;;;;;;1.80;0.97;;;5.90;99.90;;;;;;5056529;28;20457;-77
2021/10/11 00:19:36;;;;;;;0.40;0.40;;;5.80;99.90;;;;;;5056872;28;20521;-77
2021/10/11 00:22:04;;;;;;;0.50;0.50;;;5.70;99.90;;;;;;5057008;28;20903;-77
2021/10/11 00:24:31;;;;;;;0.40;0.37;;;5.70;99.90;;;;;;5057041;28;20445;-77
2021/10/11 00:26:57;;;;;;;0.80;0.40;;;5.70;99.90;;;;;;5057764;28;20450;-77
2021/10/11 00:29:24;;;;;;;0.60;0.60;;;5.70;99.90;;;;;;5057840;28;20453;-77
2021/10/11 00:31:52;;;;;;;0.93;0.50;;;5.70;99.90;;;;;;5057269;28;20995;-77
2021/10/11 00:34:19;;;;;;;0.60;0.40;;;5.70;99.90;;;;;;5057117;28;20961;-77
2021/10/11 00:36:46;;;;;;;0.40;0.40;;;5.70;99.90;;;;;;5057993;28;20458;-77
2021/10/11 00:39:12;;;;;;;0.83;0.83;;;5.70;99.90;;;;;;5057925;28;20465;-77
2021/10/11 00:41:39;;;;;;;0.40;0.40;;;5.70;99.90;;;;;;5057740;28;20466;-77
2021/10/11 00:44:06;;;;;;;0.40;0.40;;;5.70;99.90;;;;;;5057541;28;20972;-77
2021/10/11 00:46:33;;;;;;;0.63;0.60;;;5.70;99.90;;;;;;5056872;28;20833;-77
2021/10/11 00:49:01;;;;;;;0.70;0.70;;;5.70;99.90;;;;;;5057748;28;20453;-77
2021/10/11 00:51:28;;;;;;;0.60;0.40;;;5.70;99.90;;;;;;5057086;28;20485;-77
2021/10/11 00:53:55;;;;;;;0.30;0.30;;;5.70;99.90;;;;;;5057492;28;20811;-77
2021/10/11 00:56:22;;;;;;;0.80;0.80;;;5.70;99.90;;;;;;5057134;28;20441;-77
2021/10/11 00:58:49;;;;;;;0.70;0.70;;;5.70;99.90;;;;;;5057190;28;20471;-77
2021/10/11 01:01:16;;;;;;;0.50;0.50;;;5.60;99.90;;;;;;5057010;28;20462;-77
2021/10/11 01:03:42;;;;;;;0.40;0.40;;;5.60;99.90;;;;;;5057474;28;20460;-77
2021/10/11 01:06:11;;;;;;;0.93;0.93;;;5.50;99.90;;;;;;5057326;28;20457;-77
2021/10/11 01:08:38;;;;;;;0.83;0.83;;;5.50;99.90;;;;;;5055341;28;20805;-77
2021/10/11 01:11:05;;;;;;;0.77;0.77;;;5.50;99.90;;;;;;5054709;28;20489;-77
2021/10/11 01:13:31;;;;;;;0.80;0.80;;;5.60;99.90;;;;;;5054825;28;20450;-77
2021/10/11 01:15:58;;;;;;;1.27;1.17;;;5.60;99.90;;;;;;5054804;28;20454;-77
2021/10/11 01:18:25;;;;;;;1.80;0.60;;;5.60;99.90;;;;;;5054736;28;20434;-77
2021/10/11 01:20:53;;;;;;;0.50;0.43;;;5.70;99.90;;;;;;5054646;28;20466;-77
2021/10/11 01:23:25;;;;;;;1.47;0.70;;;5.60;99.90;;;;;;5054230;28;20481;-77
2021/10/11 01:25:52;;;;;;;0.70;0.70;;;5.60;99.90;;;;;;5054553;28;20445;-77
2021/10/11 01:28:19;;;;;;;0.50;0.50;;;5.60;99.90;;;;;;5054160;28;20978;-77
2021/10/11 01:30:45;;;;;;;0.70;0.40;;;5.60;99.90;;;;;;5054245;28;20496;-77
2021/10/11 01:33:12;;;;;;;0.47;0.40;;;5.60;99.90;;;;;;5054003;28;20458;-77
2021/10/11 01:35:39;;;;;;;0.60;0.60;;;5.70;99.90;;;;;;5054334;28;20465;-77
2021/10/11 01:38:10;;;;;;;0.40;0.37;;;5.70;99.90;;;;;;5054067;28;20549;-77
2021/10/11 01:40:37;;;;;;;1.77;0.40;;;5.70;99.90;;;;;;5054235;28;20466;-77
2021/10/11 01:43:05;;;;;;;1.13;1.03;;;5.70;99.90;;;;;;5054056;28;20804;-77
2021/10/11 01:45:32;;;;;;;0.87;0.87;;;5.70;99.90;;;;;;5054053;28;20457;-77
2021/10/11 01:47:59;;;;;;;1.77;1.20;;;5.70;99.90;;;;;;5053666;28;20485;-77
2021/10/11 01:50:26;;;;;;;0.63;0.63;;;5.60;99.90;;;;;;5053970;28;20481;-77
2021/10/11 01:52:53;;;;;;;4.20;0.90;;;5.60;99.90;;;;;;5054200;28;20450;-77
2021/10/11 01:55:21;;;;;;;1.63;0.60;;;5.50;99.90;;;;;;5054226;28;20838;-77
2021/10/11 01:57:48;;;;;;;1.57;1.57;;;5.50;99.90;;;;;;5054014;28;20454;-77
2021/10/11 02:00:15;;;;;;;0.40;0.30;;;5.40;99.90;;;;;;5054698;28;20816;-77
2021/10/11 02:02:42;;;;;;;0.53;0.53;;;5.30;99.90;;;;;;5056764;28;20446;-77
2021/10/11 02:05:09;;;;;;;0.70;0.70;;;5.30;99.90;;;;;;5056824;28;20904;-77
2021/10/11 02:07:36;;;;;;;0.50;0.50;;;5.30;99.90;;;;;;5056812;28;20457;-77
2021/10/11 02:10:03;;;;;;;0.87;0.87;;;5.20;99.90;;;;;;5057214;28;20961;-77
2021/10/11 02:12:32;;;;;;;0.83;0.67;;;5.20;99.90;;;;;;5058028;28;20825;-77
2021/10/11 02:14:58;;;;;;;0.70;0.70;;;5.10;99.90;;;;;;5057311;28;20442;-77
2021/10/11 02:17:25;;;;;;;0.30;0.30;;;5.10;99.90;;;;;;5056522;28;20445;-77
2021/10/11 02:19:52;;;;;;;0.53;0.53;;;5.10;99.90;;;;;;5056540;28;20434;-77
2021/10/11 02:22:19;;;;;;;0.40;0.40;;;5.10;99.90;;;;;;5055926;28;20477;-77
2021/10/11 02:24:46;;;;;;;0.50;0.50;;;5.10;99.90;;;;;;5056095;28;20434;-77
2021/10/11 02:27:12;;;;;;;0.30;0.30;;;5.00;99.90;;;;;;5056508;28;20454;-77
2021/10/11 02:29:41;;;;;;;0.30;0.30;;;5.10;99.90;;;;;;5056335;28;20450;-77
2021/10/11 02:32:08;;;;;;;0.70;0.70;;;5.10;99.90;;;;;;5056537;28;20490;-76
2021/10/11 02:34:34;;;;;;;0.50;0.50;;;5.10;99.90;;;;;;5056108;28;20461;-77
2021/10/11 02:37:01;;;;;;;1.37;1.30;;;5.00;99.90;;;;;;5056484;28;20452;-77
2021/10/11 02:39:28;;;;;;;0.50;0.50;;;5.00;99.90;;;;;;5056394;28;20796;-77
2021/10/11 02:41:55;;;;;;;1.33;1.33;;;5.00;99.90;;;;;;5058013;28;20817;-77
2021/10/11 02:44:22;;;;;;;0.30;0.30;;;4.90;99.90;;;;;;5056919;28;20813;-77
2021/10/11 02:46:50;;;;;;;0.70;0.70;;;5.00;99.90;;;;;;5057755;28;20454;-77
2021/10/11 02:49:17;;;;;;;0.50;0.40;;;5.00;99.90;;;;;;5057465;28;20450;-77
2021/10/11 02:51:43;;;;;;;0.43;0.43;;;4.90;99.90;;;;;;5058334;28;20486;-77
2021/10/11 02:54:11;;;;;;;0.60;0.60;;;4.90;99.90;;;;;;5057741;28;20450;-77
2021/10/11 02:56:38;;;;;;;1.37;1.33;;;4.90;99.90;;;;;;5058087;28;20466;-77
2021/10/11 02:59:05;;;;;;;0.80;0.80;;;4.90;99.90;;;;;;5058063;28;20446;-77
2021/10/11 03:01:31;;;;;;;0.63;0.63;;;4.90;99.90;;;;;;5061797;28;20469;-77
2021/10/11 03:03:59;;;;;;;0.50;0.50;;;4.90;99.90;;;;;;5061258;28;20457;-77
2021/10/11 03:06:26;;;;;;;0.63;0.63;;;4.90;99.90;;;;;;5061559;28;20450;-77
2021/10/11 03:08:53;;;;;;;0.47;0.30;;;4.80;99.90;;;;;;5061508;28;20452;-77
2021/10/11 03:11:19;;;;;;;0.40;0.40;;;4.80;99.90;;;;;;5060738;28;20485;-77
2021/10/11 03:13:46;;;;;;;4.13;1.87;;;4.70;99.90;;;;;;5061819;28;20450;-77
2021/10/11 03:16:13;;;;;;;0.37;0.37;;;4.70;99.90;;;;;;5061658;28;20458;-77
2021/10/11 03:18:40;;;;;;;0.57;0.57;;;4.70;99.90;;;;;;5058462;28;20454;-77
2021/10/11 03:21:08;;;;;;;0.77;0.77;;;4.70;99.90;;;;;;5057391;28;21004;-77
2021/10/11 03:23:35;;;;;;;0.90;0.90;;;4.70;99.90;;;;;;5057365;28;20481;-77
2021/10/11 03:26:02;;;;;;;0.33;0.33;;;4.70;99.90;;;;;;5056987;28;20999;-78
2021/10/11 03:28:28;;;;;;;1.23;1.23;;;4.70;99.90;;;;;;5057556;28;20453;-77
2021/10/11 03:30:55;;;;;;;0.40;0.30;;;4.70;99.90;;;;;;5056918;28;20496;-78
2021/10/11 03:33:22;;;;;;;0.53;0.53;;;4.70;99.90;;;;;;5060491;28;20449;-78
2021/10/11 03:35:49;;;;;;;0.40;0.40;;;4.70;99.90;;;;;;5061546;28;20516;-77
2021/10/11 03:38:17;;;;;;;0.50;0.50;;;4.60;99.90;;;;;;5059710;28;20476;-77
2021/10/11 03:40:43;;;;;;;1.03;0.90;;;4.60;99.90;;;;;;5059644;28;20830;-77
2021/10/11 03:43:10;;;;;;;0.73;0.73;;;4.50;99.90;;;;;;5059283;28;20460;-77
2021/10/11 03:45:37;;;;;;;0.73;0.37;;;4.50;99.90;;;;;;5058809;28;20433;-77
2021/10/11 03:48:04;;;;;;;0.40;0.33;;;4.50;99.90;;;;;;5058991;28;20449;-77
2021/10/11 03:50:31;;;;;;;0.50;0.50;;;4.50;99.90;;;;;;5059826;28;20961;-77
2021/10/11 03:52:57;;;;;;;0.70;0.60;;;4.60;99.90;;;;;;5059224;28;20457;-76
2021/10/11 03:55:25;;;;;;;1.13;0.60;;;4.60;99.90;;;;;;5059193;28;20450;-76
2021/10/11 03:57:52;;;;;;;4.90;0.60;;;4.70;99.90;;;;;;5057929;28;20458;-76
2021/10/11 04:00:19;;;;;;;0.40;0.40;;;4.70;99.90;;;;;;5056874;28;20441;-76
2021/10/11 04:02:46;;;;;;;0.50;0.50;;;4.70;99.90;;;;;;5056655;28;20445;-77
2021/10/11 04:05:12;;;;;;;1.40;1.40;;;4.80;99.90;;;;;;5056817;28;20438;-77
2021/10/11 04:07:42;;;;;;;0.30;0.30;;;4.80;99.90;;;;;;5056322;28;20449;-77
2021/10/11 04:10:11;;;;;;;0.57;0.57;;;4.80;99.90;;;;;;5057286;28;20450;-77
2021/10/11 04:12:39;;;;;;;1.13;0.60;;;4.90;99.90;;;;;;5056266;28;20489;-77
2021/10/11 04:15:08;;;;;;;0.60;0.60;;;4.90;99.90;;;;;;5056594;28;20452;-77
2021/10/11 04:17:38;;;;;;;1.83;0.70;;;5.00;99.90;;;;;;5056184;28;20499;-77
2021/10/11 04:20:06;;;;;;;0.60;0.60;;;5.00;99.90;;;;;;5056758;28;20453;-77
2021/10/11 04:22:33;;;;;;;3.03;1.13;;;5.00;99.90;;;;;;5056347;28;20489;-77
2021/10/11 04:25:00;;;;;;;0.40;0.40;;;5.00;99.90;;;;;;5057453;28;20452;-77
2021/10/11 04:27:26;;;;;;;0.80;0.50;;;5.00;99.90;;;;;;5058931;28;20449;-77
2021/10/11 04:29:54;;;;;;;0.40;0.40;;;5.00;99.90;;;;;;5056809;28;20476;-77
2021/10/11 04:32:21;;;;;;;0.30;0.30;;;5.00;99.90;;;;;;5055952;28;20485;-77
2021/10/11 04:34:48;;;;;;;0.50;0.50;;;5.00;99.90;;;;;;5055864;28;20441;-77
2021/10/11 04:37:15;;;;;;;1.03;0.60;;;5.10;99.90;;;;;;5055962;28;20949;-77
2021/10/11 04:39:41;;;;;;;0.93;0.93;;;5.00;99.90;;;;;;5056044;28;20442;-77
2021/10/11 04:42:08;;;;;;;0.83;0.83;;;5.00;99.90;;;;;;5056146;28;20469;-77
2021/10/11 04:44:35;;;;;;;1.00;0.90;;;5.00;99.90;;;;;;5056159;28;20450;-77
2021/10/11 04:47:03;;;;;;;0.40;0.40;;;4.90;99.90;;;;;;5055869;28;20441;-77
2021/10/11 04:49:30;;;;;;;0.70;0.70;;;4.90;99.90;;;;;;5055674;28;20454;-77
2021/10/11 04:51:56;;;;;;;0.63;0.63;;;4.80;99.90;;;;;;5055597;28;20497;-77
2021/10/11 04:54:23;;;;;;;0.47;0.47;;;4.80;99.90;;;;;;5055392;28;20458;-77
2021/10/11 04:56:50;;;;;;;0.50;0.50;;;4.70;99.90;;;;;;5055518;28;20457;-77
2021/10/11 04:59:17;;;;;;;0.97;0.67;;;4.70;99.90;;;;;;5055527;28;20454;-77
2021/10/11 05:01:43;;;;;;;0.30;0.30;;;4.70;99.90;;;;;;5055058;28;20969;-77
2021/10/11 05:04:11;;;;;;;1.40;1.30;;;4.70;99.90;;;;;;5055523;28;20442;-76
2021/10/11 05:06:38;;;;;;;0.83;0.50;;;4.60;99.90;;;;;;5060351;28;20450;-77
2021/10/11 05:09:05;;;;;;;0.30;0.30;;;4.50;99.90;;;;;;5059586;28;20449;-77
2021/10/11 05:11:32;;;;;;;0.40;0.40;;;4.50;99.90;;;;;;5058873;28;20478;-77
2021/10/11 05:13:58;;;;;;;1.67;0.60;;;4.50;99.90;;;;;;5059133;28;20442;-77
2021/10/11 05:16:27;;;;;;;0.40;0.40;;;4.50;99.90;;;;;;5059254;28;20959;-77
2021/10/11 05:18:53;;;;;;;0.30;0.30;;;4.50;99.90;;;;;;5058838;28;20454;-77
2021/10/11 05:21:22;;;;;;;1.03;0.37;;;4.50;99.90;;;;;;5058183;28;20462;-77
2021/10/11 05:23:48;;;;;;;0.40;0.40;;;4.50;99.90;;;;;;5057898;28;21035;-77
2021/10/11 05:26:15;;;;;;;0.40;0.40;;;4.50;99.90;;;;;;5058155;28;20450;-77
2021/10/11 05:28:42;;;;;;;0.47;0.47;;;4.50;99.90;;;;;;5058966;28;20504;-77
2021/10/11 05:31:09;;;;;;;0.30;0.30;;;4.50;99.90;;;;;;5058194;28;20472;-77
2021/10/11 05:33:36;;;;;;;1.27;0.93;;;4.40;99.90;;;;;;5063514;28;20449;-78
2021/10/11 05:36:04;;;;;;;0.50;0.50;;;4.40;99.90;;;;;;5066102;28;20896;-78
2021/10/11 05:38:33;;;;;;;0.30;0.30;;;4.40;99.90;;;;;;5064175;28;20937;-77
2021/10/11 05:40:59;;;;;;;0.80;0.80;;;4.40;99.90;;;;;;5063518;28;20476;-78
2021/10/11 05:43:26;;;;;;;0.57;0.57;;;4.40;99.90;;;;;;5064393;28;20452;-78
2021/10/11 05:45:53;;;;;;;6.20;1.73;;;4.40;99.90;;;;;;5064603;28;20450;-77
2021/10/11 05:48:20;;;;;;;0.40;0.30;;;4.50;99.90;;;;;;5064201;28;20438;-78
2021/10/11 05:50:46;;;;;;;0.30;0.30;;;4.50;99.90;;;;;;5059729;28;20472;-77
2021/10/11 05:53:13;;;;;;;1.93;1.83;;;4.50;99.90;;;;;;5058983;28;21023;-77
2021/10/11 05:55:42;;;;;;;0.40;0.40;;;4.60;99.90;;;;;;5058478;28;20475;-77
2021/10/11 05:58:08;;;;;;;0.60;0.60;;;4.50;99.90;;;;;;5057739;28;20938;-77
2021/10/11 06:00:35;;;;;;;0.30;0.20;;;4.50;99.90;;;;;;5057594;28;20480;-77
2021/10/11 06:03:02;;;;;;;0.60;0.60;;;4.50;99.90;;;;;;5057411;28;20438;-77
2021/10/11 06:05:28;;;;;;;2.60;0.40;;;4.50;99.90;;;;;;5058175;28;20968;-77
2021/10/11 06:07:55;;;;;;;1.23;1.23;;;4.40;99.90;;;;;;5058339;28;20456;-77
2021/10/11 06:10:22;;;;;;;0.73;0.73;;;4.40;99.90;;;;;;5058458;28;20449;-77
2021/10/11 06:12:50;;;;;;;0.30;0.30;;;4.50;99.90;;;;;;5058052;28;20486;-77
2021/10/11 06:15:17;;;;;;;0.50;0.50;;;4.50;99.90;;;;;;5058191;28;20804;-77
2021/10/11 06:17:44;;;;;;;1.03;1.03;;;4.50;99.90;;;;;;5058834;28;20449;-77
2021/10/11 06:20:11;;;;;;;1.23;1.13;;;4.50;99.90;;;;;;5058105;28;20449;-77
2021/10/11 06:22:38;;;;;;;0.50;0.50;;;4.50;99.90;;;;;;5057870;28;20475;-77
2021/10/11 06:25:06;;;;;;;0.70;0.70;;;4.60;99.90;;;;;;5058229;28;20449;-77
2021/10/11 06:27:33;;;;;;;2.10;0.50;;;4.60;99.90;;;;;;5057563;28;20941;-77
2021/10/11 06:30:01;;;;;;;0.63;0.63;;;4.60;99.90;;;;;;5058225;28;20450;-77
2021/10/11 06:32:28;;;;;;;1.67;0.70;;;4.70;99.90;;;;;;5056483;28;20481;-77
2021/10/11 06:34:55;;;;;;;2.80;2.70;;;4.70;99.90;;;;;;5057163;28;20452;-77
2021/10/11 06:37:22;;;;;;;2.00;0.40;;;4.70;99.90;;;;;;5056215;28;20463;-78
2021/10/11 06:39:49;;;;;;;0.30;0.30;;;4.80;99.90;;;;;;5060329;28;20968;-77
2021/10/11 06:42:15;;;;;;;0.80;0.70;;;4.80;99.90;;;;;;5059312;28;20462;-77
2021/10/11 06:44:42;;;;;;;0.50;0.40;;;4.90;99.90;;;;;;5058537;28;20984;-77
2021/10/11 06:47:10;;;;;;;2.93;0.87;;;4.90;99.90;;;;;;5057147;28;20781;-77
2021/10/11 06:49:37;;;;;;;0.70;0.70;;;4.90;99.90;;;;;;5058497;28;20461;-77
2021/10/11 06:52:04;;;;;;;0.90;0.90;;;5.00;99.90;;;;;;5057631;28;20496;-77
2021/10/11 06:54:31;;;;;;;0.57;0.57;;;5.10;99.90;;;;;;5054154;28;20445;-77
2021/10/11 06:56:58;;;;;;;1.13;1.03;;;5.10;99.90;;;;;;5053777;28;20515;-77
2021/10/11 06:59:25;;;;;;;0.40;0.40;;;5.20;99.90;;;;;;5053574;28;20442;-77
2021/10/11 07:01:51;;;;;;;0.77;0.77;;;5.30;99.90;;;;;;5053006;28;20871;-77
2021/10/11 07:04:20;;;;;;;1.23;0.97;;;5.30;99.90;;;;;;5053440;28;20446;-77
2021/10/11 07:06:47;;;;;;;1.33;0.70;;;5.40;99.90;;;;;;5053543;28;20438;-77
2021/10/11 07:09:14;;;;;;;1.13;0.77;;;5.40;99.90;;;;;;5053548;28;20460;-77
2021/10/11 07:11:41;;;;;;;2.30;2.20;;;5.50;99.90;;;;;;5052864;28;20474;-77
2021/10/11 07:14:08;;;;;;;0.60;0.60;;;5.60;99.90;;;;;;5053080;28;20430;-77
2021/10/11 07:16:35;;;;;;;0.50;0.50;;;5.70;99.90;;;;;;5053174;28;20449;-77
2021/10/11 07:19:01;;;;;;;0.57;0.57;;;5.70;99.90;;;;;;5054241;28;20445;-77
2021/10/11 07:21:29;;;;;;;0.40;0.40;;;5.80;99.90;;;;;;5054877;28;20465;-77
2021/10/11 07:23:56;;;;;;;1.23;0.93;;;6.00;99.90;;;;;;5053869;28;20456;-77
2021/10/11 07:26:23;;;;;;;0.50;0.50;;;6.10;99.90;;;;;;5053282;28;20840;-77
2021/10/11 07:28:50;;;;;;;1.03;1.03;;;6.20;99.90;;;;;;5055009;28;20433;-77
2021/10/11 07:31:16;;;;;;;0.63;0.63;;;6.30;99.90;;;;;;5055854;28;20478;-77
2021/10/11 07:33:43;;;;;;;0.50;0.50;;;6.40;99.90;;;;;;5054824;28;20461;-77
2021/10/11 07:36:10;;;;;;;1.27;0.57;;;6.40;99.90;;;;;;5054009;28;20433;-78
2021/10/11 07:38:38;;;;;;;0.63;0.60;;;6.40;99.90;;;;;;5053849;28;20449;-77
2021/10/11 07:41:05;;;;;;;3.00;1.33;;;6.60;99.90;;;;;;5053710;28;20473;-77
2021/10/11 07:43:31;;;;;;;0.80;0.80;;;6.70;99.90;;;;;;5053257;28;20433;-77
2021/10/11 07:46:03;;;;;;;1.03;0.87;;;6.70;99.90;;;;;;5052877;28;20441;-77
2021/10/11 07:48:30;;;;;;;0.97;0.97;;;6.90;99.90;;;;;;5056185;28;20434;-78
2021/10/11 07:50:57;;;;;;;1.07;1.00;;;7.00;99.90;;;;;;5055664;28;20488;-77
2021/10/11 07:53:24;;;;;;;1.03;1.03;;;7.10;99.90;;;;;;5055699;28;20466;-77
2021/10/11 07:55:52;;;;;;;0.50;0.50;;;7.20;99.90;;;;;;5055989;28;20441;-77
2021/10/11 07:58:19;;;;;;;1.07;0.97;;;7.40;99.90;;;;;;5056031;28;20444;-77
2021/10/11 08:00:45;;;;;;;0.40;0.40;;;7.50;99.90;;;;;;5055556;28;20470;-77
2021/10/11 08:03:12;;;;;;;0.77;0.77;;;7.60;99.90;;;;;;5055922;28;20800;-77
2021/10/11 08:05:39;;;;;;;0.60;0.60;;;7.80;99.90;;;;;;5055831;28;20453;-77
2021/10/11 08:08:06;;;;;;;0.73;0.73;;;8.00;99.90;;;;;;5055809;28;20456;-77
2021/10/11 08:10:33;;;;;;;1.27;0.60;;;8.10;99.90;;;;;;5055674;28;20527;-77
2021/10/11 08:13:02;;;;;;;0.60;0.60;;;8.30;99.90;;;;;;5055351;28;21050;-77
2021/10/11 08:15:28;;;;;;;0.70;0.70;;;8.50;99.90;;;;;;5055662;28;20469;-77
2021/10/11 08:17:55;;;;;;;0.80;0.60;;;8.60;99.90;;;;;;5055601;28;20441;-77
2021/10/11 08:20:22;;;;;;;2.60;1.20;;;8.80;99.90;;;;;;5055509;28;20450;-77
2021/10/11 08:22:48;;;;;;;10.20;1.60;;;8.90;99.90;;;;;;5055049;28;20853;-77
2021/10/11 08:25:16;;;;;;;4.83;1.90;;;9.10;99.90;;;;;;5055461;28;20461;-77
2021/10/11 08:27:43;;;;;;;3.77;0.80;;;9.20;99.90;;;;;;5055415;28;20449;-77
2021/10/11 08:30:11;;;;;;;0.90;0.90;;;9.30;99.90;;;;;;5054975;28;20472;-77
2021/10/11 08:32:38;;;;;;;1.37;1.00;;;9.40;99.90;;;;;;5054975;28;21000;-77
2021/10/11 08:35:06;;;;;;;1.33;1.13;;;9.50;99.90;;;;;;5055268;28;20456;-77
2021/10/11 08:37:33;;;;;;;1.23;1.23;;;9.70;99.90;;;;;;5054920;28;20948;-77
2021/10/11 08:39:59;;;;;;;1.67;1.07;;;9.80;99.90;;;;;;5055192;28;20462;-77
2021/10/11 08:42:26;;;;;;;3.70;0.93;;;9.90;99.90;;;;;;5054767;28;20985;-77
2021/10/11 08:44:53;;;;;;;4.33;1.20;;;10.10;99.90;;;;;;5055808;28;20462;-77
2021/10/11 08:47:21;;;;;;;1.67;1.23;;;10.20;99.90;;;;;;5055100;28;20473;-77
2021/10/11 08:49:50;;;;;;;1.23;0.93;;;10.40;99.90;;;;;;5054735;28;20441;-78
2021/10/11 08:52:21;;;;;;;2.70;2.50;;;10.50;99.90;;;;;;5054885;28;20477;-81
2021/10/11 08:54:48;;;;;;;0.97;0.97;;;10.80;99.90;;;;;;5054696;28;20560;-81
2021/10/11 08:57:23;;;;;;;2.17;1.37;;;11.40;99.90;;;;;;5054414;28;20457;-82
2021/10/11 08:59:50;;;;;;;0.70;0.70;;;11.70;99.90;;;;;;5054705;28;20449;-81
2021/10/11 09:02:20;;;;;;;1.10;1.10;;;12.20;99.90;;;;;;5054430;28;20516;-81
2021/10/11 09:04:51;;;;;;;2.23;0.90;;;12.90;99.90;;;;;;5054731;28;20588;-81
2021/10/11 09:07:22;;;;;;;1.30;0.93;;;13.30;99.90;;;;;;5054698;28;20434;-81
2021/10/11 09:09:50;;;;;;;2.20;1.43;;;13.60;99.90;;;;;;5054345;28;20945;-81
2021/10/11 09:12:19;;;;;;;2.77;1.93;;;13.70;99.90;;;;;;5054430;28;20866;-81
2021/10/11 09:14:47;;;;;;;1.50;1.40;;;13.80;99.90;;;;;;5054589;28;20461;-81
2021/10/11 09:17:28;;;;;;;1.63;1.00;;;13.70;99.90;;;;;;5054211;28;20449;-81
2021/10/11 09:19:59;;;;;;;1.47;1.20;;;13.60;99.90;;;;;;5054505;28;20534;-81
2021/10/11 09:22:33;;;;;;;1.40;0.83;;;13.40;99.90;;;;;;5054132;28;20466;-82
2021/10/11 09:25:00;;;;;;;1.30;0.90;;;13.20;99.90;;;;;;5054127;28;20527;-81
2021/10/11 09:27:27;;;;;;;2.53;1.10;;;12.90;99.90;;;;;;5054381;28;20811;-81
2021/10/11 09:29:54;;;;;;;3.30;1.70;;;12.80;99.90;;;;;;5054299;28;20434;-81
2021/10/11 09:32:30;;;;;;;1.93;1.10;;;12.80;99.90;;;;;;5054122;28;20494;-81
2021/10/11 09:35:09;;;;;;;1.83;1.73;;;12.80;99.90;;;;;;5053880;28;20426;-81
2021/10/11 09:37:37;;;;;;;2.30;1.27;;;12.90;99.90;;;;;;5054282;28;20814;-81
2021/10/11 09:40:05;;;;;;;2.17;2.07;;;12.90;99.90;;;;;;5053784;28;20442;-81
2021/10/11 09:42:31;;;;;;;1.70;1.60;;;13.10;99.90;;;;;;5053987;28;20478;-81
2021/10/11 09:44:58;;;;;;;2.43;1.90;;;13.60;99.90;;;;;;5054436;28;20442;-81
2021/10/11 09:47:28;;;;;;;3.67;2.30;;;13.70;99.90;;;;;;5053588;28;20925;-81
2021/10/11 09:49:56;;;;;;;3.00;2.40;;;14.20;99.90;;;;;;5053881;28;20441;-81
2021/10/11 09:52:24;;;;;;;4.00;1.30;;;14.50;99.90;;;;;;5053776;28;20470;-81
2021/10/11 09:54:51;;;;;;;3.73;1.63;;;15.00;99.90;;;;;;5053871;28;20434;-80
2021/10/11 09:57:19;;;;;;;4.87;2.17;;;15.30;99.90;;;;;;5053493;28;20438;-80
2021/10/11 09:59:48;;;;;;;4.07;2.00;;;15.50;99.90;;;;;;5053527;28;20415;-80
2021/10/11 10:02:17;;;;;;;3.37;2.03;;;15.70;99.90;;;;;;5053695;28;20469;-81
2021/10/11 10:04:44;;;;;;;2.57;2.40;;;16.20;99.90;;;;;;5053317;28;20893;-81
2021/10/11 10:07:16;;;;;;;6.17;1.90;;;16.70;99.90;;;;;;5053420;28;20754;-81
2021/10/11 10:09:48;;;;;;;5.07;2.60;;;17.40;99.90;;;;;;5053338;28;20446;-79
2021/10/11 10:12:15;;;;;;;6.70;1.50;;;17.80;99.90;;;;;;5053518;28;20477;-80
2021/10/11 10:14:42;;;;;;;3.67;2.57;;;17.60;99.90;;;;;;5053157;28;20981;-78
2021/10/11 10:17:09;;;;;;;5.10;2.47;;;17.70;99.50;;;;;;5053497;28;20445;-79
2021/10/11 10:19:37;;;;;;;2.50;2.23;;;17.80;98.50;;;;;;5053485;28;20449;-79
2021/10/11 10:22:15;;;;;;;3.40;2.37;;;17.80;97.90;;;;;;5052995;28;20486;-79
2021/10/11 10:24:42;;;;;;;2.73;1.80;;;17.90;98.00;;;;;;5053425;28;20434;-79
2021/10/11 10:27:11;;;;;;;3.00;2.07;;;18.00;97.40;;;;;;5053042;28;20441;-79
2021/10/11 10:29:44;;;;;;;2.73;2.53;;;18.50;96.10;;;;;;5053081;28;20415;-79
2021/10/11 10:32:12;;;;;;;3.00;2.17;;;19.00;95.10;;;;;;5053212;28;20465;-79
2021/10/11 10:34:39;;;;;;;4.70;3.00;;;19.50;92.70;;;;;;5053256;28;20470;-79
2021/10/11 10:37:09;;;;;;;3.50;2.27;;;19.70;92.60;;;;;;5052937;28;20809;-79
2021/10/11 10:39:41;;;;;;;3.63;2.70;;;19.90;92.60;;;;;;5053253;28;20433;-79
2021/10/11 10:42:20;;;;;;;4.80;3.10;;;19.60;91.80;;;;;;5052834;28;20476;-79
2021/10/11 10:44:47;;;;;;;3.30;2.30;;;19.40;91.40;;;;;;5052934;28;20921;-79
2021/10/11 10:47:14;;;;;;;3.57;2.53;;;19.00;91.70;;;;;;5053263;28;20430;-79
2021/10/11 10:49:47;;;;;;;2.60;2.40;;;18.50;91.80;;;;;;5053165;28;20430;-79
2021/10/11 10:52:17;;;;;;;7.60;2.30;;;17.80;91.90;;;;;;5052808;28;20893;-80
2021/10/11 10:54:46;;;;;;;6.53;2.80;;;17.30;92.80;;;;;;5052709;28;20981;-80
2021/10/11 10:57:19;;;;;;;4.83;2.63;;;16.80;92.90;;;;;;5053280;28;20434;-80
2021/10/11 10:59:51;;;;;;;4.07;1.90;;;16.10;94.00;;;;;;5053081;28;20434;-80
2021/10/11 11:02:18;;;;;;;3.87;2.40;;;15.80;94.90;;;;;;5052671;28;21059;-80
2021/10/11 11:04:55;;;;;;;3.07;2.40;;;15.60;96.70;;;;;;5053037;28;20430;-80
2021/10/11 11:07:26;;;;;;;6.90;3.10;;;15.60;96.00;;;;;;5053034;28;20433;-81
2021/10/11 11:09:53;;;;;;;4.40;1.70;;;15.40;95.90;;;;;;5053059;28;20466;-80
2021/10/11 11:12:30;;;;;;;1.80;1.70;;;15.30;96.80;;;;;;5052870;28;20470;-80
2021/10/11 11:14:57;;;;;;;3.63;1.43;;;15.10;96.70;;;;;;5052602;28;20485;-81
2021/10/11 11:17:31;;;;;;;1.87;1.33;;;15.10;96.90;;;;;;5052969;28;20426;-80
2021/10/11 11:19:58;;;;;;;3.50;2.00;;;15.10;97.10;;;;;;5052906;28;20433;-81
2021/10/11 11:22:30;;;;;;;3.63;1.53;;;15.00;97.30;;;;;;5054718;28;20492;-81
2021/10/11 11:25:00;;;;;;;4.30;1.50;;;15.00;97.50;;;;;;5056614;28;20452;-79
2021/10/11 11:27:30;;;;;;;1.87;1.67;;;14.80;98.00;;;;;;5056263;28;20441;-81
2021/10/11 11:29:58;;;;;;;2.30;1.50;;;14.80;98.40;;;;;;5056625;28;20518;-81
2021/10/11 11:32:25;;;;;;;2.87;1.80;;;14.90;98.30;;;;;;5056522;28;20488;-81
2021/10/11 11:34:52;;;;;;;1.73;1.40;;;14.80;99.00;;;;;;5056424;28;20830;-81
2021/10/11 11:37:19;;;;;;;3.33;2.00;;;14.70;99.30;;;;;;5056128;28;20437;-81
2021/10/11 11:39:46;;;;;;;10.27;3.70;;;14.70;99.90;;;;;;5057264;28;20425;-81
2021/10/11 11:42:13;;;;;;;1.40;1.20;;;14.70;99.90;;;;;;5056304;28;20794;-81
2021/10/11 11:44:41;;;;;;;3.50;2.33;;;14.80;99.90;;;;;;5056344;28;20434;-81
2021/10/11 11:47:10;;;;;;;4.67;1.53;;;14.80;99.10;;;;;;5056262;28;20441;-81
2021/10/11 11:49:41;;;;;;;1.33;1.13;;;14.80;99.30;;;;;;5056163;28;20434;-81
2021/10/11 11:52:10;;;;;;;2.70;1.47;;;14.80;98.70;;;;;;5056210;28;20474;-81
2021/10/11 11:54:38;;;;;;;3.40;1.97;;;14.70;99.90;;;;;;5056053;28;20477;-81
2021/10/11 11:57:05;;;;;;;5.63;1.87;;;14.60;99.90;;;;;;5056142;28;20430;-82
2021/10/11 11:59:34;;;;;;;1.30;1.20;;;14.50;99.90;;;;;;5055998;28;20438;-83
2021/10/11 12:02:03;;;;;;;2.90;2.00;;;14.40;99.90;;;;;;5055912;28;20465;-81
2021/10/11 12:04:31;;;;;;;8.60;2.50;;;14.40;99.90;;;;;;5055954;28;20431;-81
2021/10/11 12:07:04;;;;;;;3.57;1.67;;;14.30;99.90;;;;;;5055914;28;20426;-81
2021/10/11 12:09:31;;;;;;;1.53;1.43;;;14.30;99.90;;;;;;5055859;28;20442;-81
2021/10/11 12:12:03;;;;;;;3.23;1.77;;;14.20;99.90;;;;;;5055764;28;20465;-77
2021/10/11 12:14:29;;;;;;;2.00;1.57;;;14.10;99.90;;;;;;5055349;28;20506;-76
2021/10/11 12:17:02;;;;;;;5.43;1.90;;;13.90;99.90;;;;;;5055356;28;20449;-77
2021/10/11 12:19:29;;;;;;;4.57;2.50;;;13.80;99.90;;;;;;5055645;28;20956;-76
2021/10/11 12:21:57;;;;;;;2.53;1.63;;;13.80;99.90;;;;;;5055257;28;20517;-77
2021/10/11 12:24:25;;;;;;;1.47;0.93;;;13.70;99.90;;;;;;5055290;28;20445;-76
2021/10/11 12:26:54;;;;;;;2.13;1.93;;;13.70;99.90;;;;;;5055488;28;20446;-77
2021/10/11 12:29:22;;;;;;;3.10;1.87;;;13.60;99.90;;;;;;5055177;28;20792;-77
2021/10/11 12:31:57;;;;;;;5.50;1.67;;;13.50;99.90;;;;;;5055323;28;20548;-83
2021/10/11 12:34:30;;;;;;;4.70;1.93;;;13.60;99.90;;;;;;5054938;28;20477;-81
2021/10/11 12:36:58;;;;;;;5.80;1.33;;;13.50;99.90;;;;;;5055353;28;20430;-81
2021/10/11 12:39:33;;;;;;;3.40;2.97;;;13.50;99.90;;;;;;5055211;28;20453;-81
2021/10/11 12:42:00;;;;;;;2.03;1.50;;;13.50;99.90;;;;;;5055052;28;20476;-81
2021/10/11 12:44:36;;;;;;;6.37;1.53;;;13.50;99.90;;;;;;5055111;28;20442;-82
2021/10/11 12:47:04;;;;;;;3.37;2.70;;;13.50;99.90;;;;;;5055157;28;20433;-81
2021/10/11 12:49:35;;;;;;;1.50;1.40;;;13.50;99.90;;;;;;5055130;28;20437;-79
2021/10/11 12:52:02;;;;;;;1.30;1.13;;;13.40;99.90;;;;;;5054969;28;20466;-80
2021/10/11 12:54:31;;;;;;;2.83;1.50;;;13.40;99.90;;;;;;5054822;28;20535;-78